sensor_id;sensor_type;location;lat;lon;timestamp;pressure;altitude;pressure_sealevel;temperature;humidity
49709;BME280;35601;55.902;13.606;2022-08-05T00:00:31;100330.02;;;21.42;66.94
49709;BME280;35601;55.902;13.606;2022-08-05T00:02:59;100317.77;;;21.44;65.75
49709;BME280;35601;55.902;13.606;2022-08-05T00:05:25;100307.68;;;21.38;65.57
49709;BME280;35601;55.902;13.606;2022-08-05T00:07:52;100307.40;;;20.18;69.11
49709;BME280;35601;55.902;13.606;2022-08-05T00:10:20;100307.24;;;20.67;69.13
49709;BME280;35601;55.902;13.606;2022-08-05T00:12:47;100314.42;;;20.05;69.78
49709;BME280;35601;55.902;13.606;2022-08-05T00:15:14;100314.59;;;20.62;68.91
49709;BME280;35601;55.902;13.606;2022-08-05T00:17:41;100317.00;;;20.52;68.86
49709;BME280;35601;55.902;13.606;2022-08-05T00:20:09;100317.25;;;20.81;68.62
49709;BME280;35601;55.902;13.606;2022-08-05T00:22:35;100316.55;;;20.66;68.77
49709;BME280;35601;55.902;13.606;2022-08-05T00:25:03;100315.43;;;21.02;68.68
49709;BME280;35601;55.902;13.606;2022-08-05T00:27:30;100309.78;;;20.64;68.53
49709;BME280;35601;55.902;13.606;2022-08-05T00:29:57;100299.90;;;20.68;69.41
49709;BME280;35601;55.902;13.606;2022-08-05T00:32:24;100296.44;;;20.58;69.24
49709;BME280;35601;55.902;13.606;2022-08-05T00:34:52;100301.75;;;20.30;69.71
49709;BME280;35601;55.902;13.606;2022-08-05T00:37:19;100310.35;;;19.98;70.59
49709;BME280;35601;55.902;13.606;2022-08-05T00:39:46;100307.54;;;20.00;70.82
49709;BME280;35601;55.902;13.606;2022-08-05T00:42:13;100305.11;;;20.38;69.45
49709;BME280;35601;55.902;13.606;2022-08-05T00:44:40;100304.19;;;20.64;68.82
49709;BME280;35601;55.902;13.606;2022-08-05T00:47:07;100310.72;;;20.55;69.32
49709;BME280;35601;55.902;13.606;2022-08-05T00:49:35;100320.15;;;20.24;69.29
49709;BME280;35601;55.902;13.606;2022-08-05T00:52:03;100327.06;;;20.73;68.82
49709;BME280;35601;55.902;13.606;2022-08-05T00:54:30;100332.58;;;20.72;69.25
49709;BME280;35601;55.902;13.606;2022-08-05T00:56:57;100343.42;;;20.59;69.76
49709;BME280;35601;55.902;13.606;2022-08-05T00:59:24;100348.64;;;20.55;69.11
49709;BME280;35601;55.902;13.606;2022-08-05T01:01:51;100344.58;;;20.17;68.71
49709;BME280;35601;55.902;13.606;2022-08-05T01:04:19;100346.08;;;20.15;68.51
49709;BME280;35601;55.902;13.606;2022-08-05T01:06:46;100348.70;;;20.23;69.28
49709;BME280;35601;55.902;13.606;2022-08-05T01:09:14;100351.64;;;19.88;69.03
49709;BME280;35601;55.902;13.606;2022-08-05T01:11:43;100354.82;;;20.44;68.98
49709;BME280;35601;55.902;13.606;2022-08-05T01:14:16;100361.12;;;20.36;69.11
49709;BME280;35601;55.902;13.606;2022-08-05T01:16:49;100370.63;;;20.45;69.29
49709;BME280;35601;55.902;13.606;2022-08-05T01:19:28;100377.39;;;20.53;69.23
49709;BME280;35601;55.902;13.606;2022-08-05T01:22:27;100374.47;;;20.45;69.52
49709;BME280;35601;55.902;13.606;2022-08-05T01:25:15;100368.67;;;20.58;69.11
49709;BME280;35601;55.902;13.606;2022-08-05T01:28:12;100366.13;;;20.22;68.98
49709;BME280;35601;55.902;13.606;2022-08-05T01:30:47;100379.88;;;20.75;66.85
49709;BME280;35601;55.902;13.606;2022-08-05T01:33:18;100389.89;;;20.52;68.43
49709;BME280;35601;55.902;13.606;2022-08-05T01:35:49;100396.82;;;20.19;68.57
49709;BME280;35601;55.902;13.606;2022-08-05T01:38:19;100397.89;;;20.79;67.65
49709;BME280;35601;55.902;13.606;2022-08-05T01:40:46;100392.72;;;20.99;66.94
49709;BME280;35601;55.902;13.606;2022-08-05T01:43:15;100383.09;;;21.08;66.05
49709;BME280;35601;55.902;13.606;2022-08-05T01:45:43;100388.05;;;20.89;65.88
49709;BME280;35601;55.902;13.606;2022-08-05T01:48:10;100391.90;;;20.47;66.65
49709;BME280;35601;55.902;13.606;2022-08-05T01:50:39;100395.28;;;19.99;67.67
49709;BME280;35601;55.902;13.606;2022-08-05T01:53:12;100396.36;;;20.37;66.92
49709;BME280;35601;55.902;13.606;2022-08-05T01:55:41;100391.14;;;20.30;66.94
49709;BME280;35601;55.902;13.606;2022-08-05T01:58:11;100393.16;;;20.04;67.15
49709;BME280;35601;55.902;13.606;2022-08-05T02:00:41;100392.92;;;20.43;66.76
49709;BME280;35601;55.902;13.606;2022-08-05T02:03:13;100394.70;;;20.33;67.43
49709;BME280;35601;55.902;13.606;2022-08-05T02:05:45;100390.03;;;20.62;66.41
49709;BME280;35601;55.902;13.606;2022-08-05T02:08:15;100391.89;;;20.64;66.46
49709;BME280;35601;55.902;13.606;2022-08-05T02:10:47;100392.09;;;20.60;66.86
49709;BME280;35601;55.902;13.606;2022-08-05T02:13:17;100391.72;;;20.55;67.02
49709;BME280;35601;55.902;13.606;2022-08-05T02:15:48;100399.33;;;20.38;66.31
49709;BME280;35601;55.902;13.606;2022-08-05T02:18:22;100400.88;;;19.92;66.26
49709;BME280;35601;55.902;13.606;2022-08-05T02:20:53;100399.29;;;20.49;65.75
49709;BME280;35601;55.902;13.606;2022-08-05T02:23:28;100402.34;;;20.08;66.33
49709;BME280;35601;55.902;13.606;2022-08-05T02:25:59;100403.36;;;20.08;66.35
49709;BME280;35601;55.902;13.606;2022-08-05T02:28:30;100403.96;;;19.99;66.28
49709;BME280;35601;55.902;13.606;2022-08-05T02:31:01;100404.68;;;19.80;66.90
49709;BME280;35601;55.902;13.606;2022-08-05T02:33:33;100409.59;;;20.22;66.10
49709;BME280;35601;55.902;13.606;2022-08-05T02:36:05;100413.43;;;20.10;66.85
49709;BME280;35601;55.902;13.606;2022-08-05T02:38:34;100419.73;;;19.82;67.67
49709;BME280;35601;55.902;13.606;2022-08-05T02:41:04;100426.14;;;19.67;67.90
49709;BME280;35601;55.902;13.606;2022-08-05T02:43:36;100421.62;;;19.68;68.30
49709;BME280;35601;55.902;13.606;2022-08-05T02:46:04;100413.06;;;20.11;67.18
49709;BME280;35601;55.902;13.606;2022-08-05T02:48:32;100413.04;;;20.12;67.35
49709;BME280;35601;55.902;13.606;2022-08-05T02:51:00;100412.72;;;19.90;67.72
49709;BME280;35601;55.902;13.606;2022-08-05T02:53:29;100422.91;;;19.72;68.16
49709;BME280;35601;55.902;13.606;2022-08-05T02:55:58;100419.12;;;19.97;68.09
49709;BME280;35601;55.902;13.606;2022-08-05T02:58:26;100423.13;;;19.97;68.70
49709;BME280;35601;55.902;13.606;2022-08-05T03:00:55;100425.57;;;20.00;69.22
49709;BME280;35601;55.902;13.606;2022-08-05T03:03:22;100421.52;;;20.05;69.72
49709;BME280;35601;55.902;13.606;2022-08-05T03:05:49;100419.15;;;19.96;70.51
49709;BME280;35601;55.902;13.606;2022-08-05T03:08:17;100424.48;;;20.42;70.29
49709;BME280;35601;55.902;13.606;2022-08-05T03:10:45;100417.61;;;20.43;69.75
49709;BME280;35601;55.902;13.606;2022-08-05T03:13:13;100411.52;;;20.14;70.95
49709;BME280;35601;55.902;13.606;2022-08-05T03:15:41;100406.76;;;19.96;71.32
49709;BME280;35601;55.902;13.606;2022-08-05T03:18:09;100409.57;;;19.67;73.14
49709;BME280;35601;55.902;13.606;2022-08-05T03:20:37;100410.55;;;19.65;72.71
49709;BME280;35601;55.902;13.606;2022-08-05T03:23:04;100404.02;;;19.40;73.69
49709;BME280;35601;55.902;13.606;2022-08-05T03:25:32;100397.71;;;19.68;73.17
49709;BME280;35601;55.902;13.606;2022-08-05T03:28:02;100395.42;;;19.52;73.43
49709;BME280;35601;55.902;13.606;2022-08-05T03:30:31;100386.28;;;19.79;73.92
49709;BME280;35601;55.902;13.606;2022-08-05T03:32:59;100383.85;;;19.71;74.21
49709;BME280;35601;55.902;13.606;2022-08-05T03:35:27;100385.08;;;19.54;73.90
49709;BME280;35601;55.902;13.606;2022-08-05T03:37:55;100392.48;;;19.67;74.22
49709;BME280;35601;55.902;13.606;2022-08-05T03:40:23;100390.29;;;19.65;75.06
49709;BME280;35601;55.902;13.606;2022-08-05T03:42:50;100383.47;;;19.76;74.58
49709;BME280;35601;55.902;13.606;2022-08-05T03:45:17;100389.85;;;19.99;74.37
49709;BME280;35601;55.902;13.606;2022-08-05T03:47:44;100387.79;;;19.62;75.01
49709;BME280;35601;55.902;13.606;2022-08-05T03:50:11;100383.97;;;19.65;75.93
49709;BME280;35601;55.902;13.606;2022-08-05T03:52:47;100372.38;;;19.41;75.82
49709;BME280;35601;55.902;13.606;2022-08-05T03:55:21;100377.83;;;19.70;75.40
49709;BME280;35601;55.902;13.606;2022-08-05T03:57:54;100380.91;;;20.07;74.97
49709;BME280;35601;55.902;13.606;2022-08-05T04:00:23;100387.09;;;19.48;75.93
49709;BME280;35601;55.902;13.606;2022-08-05T04:02:52;100386.53;;;19.64;75.74
49709;BME280;35601;55.902;13.606;2022-08-05T04:05:21;100391.24;;;19.84;75.06
49709;BME280;35601;55.902;13.606;2022-08-05T04:07:49;100401.29;;;19.86;73.64
49709;BME280;35601;55.902;13.606;2022-08-05T04:10:17;100402.30;;;20.48;72.61
49709;BME280;35601;55.902;13.606;2022-08-05T04:12:45;100402.14;;;20.72;72.50
49709;BME280;35601;55.902;13.606;2022-08-05T04:15:13;100401.36;;;20.70;72.28
49709;BME280;35601;55.902;13.606;2022-08-05T04:17:40;100401.68;;;20.46;72.87
49709;BME280;35601;55.902;13.606;2022-08-05T04:20:17;100395.96;;;20.62;72.60
49709;BME280;35601;55.902;13.606;2022-08-05T04:22:45;100394.38;;;20.31;72.71
49709;BME280;35601;55.902;13.606;2022-08-05T04:25:12;100389.64;;;19.71;73.81
49709;BME280;35601;55.902;13.606;2022-08-05T04:27:40;100389.28;;;20.09;74.32
49709;BME280;35601;55.902;13.606;2022-08-05T04:30:08;100383.49;;;20.32;73.04
49709;BME280;35601;55.902;13.606;2022-08-05T04:32:36;100381.85;;;20.25;73.24
49709;BME280;35601;55.902;13.606;2022-08-05T04:35:04;100379.55;;;20.07;73.62
49709;BME280;35601;55.902;13.606;2022-08-05T04:37:31;100385.02;;;20.42;72.85
49709;BME280;35601;55.902;13.606;2022-08-05T04:39:59;100386.15;;;20.14;73.44
49709;BME280;35601;55.902;13.606;2022-08-05T04:42:26;100377.86;;;20.41;72.61
49709;BME280;35601;55.902;13.606;2022-08-05T04:44:53;100387.29;;;20.25;73.06
49709;BME280;35601;55.902;13.606;2022-08-05T04:47:20;100393.26;;;20.15;73.29
49709;BME280;35601;55.902;13.606;2022-08-05T04:49:47;100395.04;;;20.42;72.69
49709;BME280;35601;55.902;13.606;2022-08-05T04:52:15;100398.02;;;19.65;74.40
49709;BME280;35601;55.902;13.606;2022-08-05T04:54:42;100392.39;;;20.07;73.80
49709;BME280;35601;55.902;13.606;2022-08-05T04:57:09;100387.47;;;19.66;74.63
49709;BME280;35601;55.902;13.606;2022-08-05T04:59:36;100384.63;;;19.85;74.05
49709;BME280;35601;55.902;13.606;2022-08-05T05:02:03;100387.44;;;19.66;74.29
49709;BME280;35601;55.902;13.606;2022-08-05T05:04:30;100384.86;;;19.73;74.07
49709;BME280;35601;55.902;13.606;2022-08-05T05:06:57;100376.86;;;20.23;73.02
49709;BME280;35601;55.902;13.606;2022-08-05T05:09:24;100368.58;;;20.16;73.29
49709;BME280;35601;55.902;13.606;2022-08-05T05:11:51;100363.70;;;19.82;73.98
49709;BME280;35601;55.902;13.606;2022-08-05T05:14:18;100367.74;;;20.19;73.31
49709;BME280;35601;55.902;13.606;2022-08-05T05:16:45;100368.92;;;19.85;73.89
49709;BME280;35601;55.902;13.606;2022-08-05T05:19:12;100366.02;;;20.38;72.69
49709;BME280;35601;55.902;13.606;2022-08-05T05:21:39;100353.46;;;20.44;72.54
49709;BME280;35601;55.902;13.606;2022-08-05T05:24:06;100352.21;;;20.64;72.18
49709;BME280;35601;55.902;13.606;2022-08-05T05:26:34;100345.97;;;20.48;72.84
49709;BME280;35601;55.902;13.606;2022-08-05T05:29:01;100341.37;;;20.26;72.11
49709;BME280;35601;55.902;13.606;2022-08-05T05:31:28;100343.85;;;20.37;72.21
49709;BME280;35601;55.902;13.606;2022-08-05T05:33:55;100350.46;;;20.55;72.63
49709;BME280;35601;55.902;13.606;2022-08-05T05:36:23;100356.03;;;20.11;72.44
49709;BME280;35601;55.902;13.606;2022-08-05T05:38:50;100360.56;;;20.60;72.35
49709;BME280;35601;55.902;13.606;2022-08-05T05:41:17;100367.54;;;20.49;71.71
49709;BME280;35601;55.902;13.606;2022-08-05T05:43:44;100367.08;;;20.38;71.62
49709;BME280;35601;55.902;13.606;2022-08-05T05:46:11;100369.21;;;20.16;72.17
49709;BME280;35601;55.902;13.606;2022-08-05T05:48:38;100372.76;;;20.91;71.19
49709;BME280;35601;55.902;13.606;2022-08-05T05:51:06;100380.62;;;21.00;70.69
49709;BME280;35601;55.902;13.606;2022-08-05T05:53:33;100380.54;;;21.02;70.17
49709;BME280;35601;55.902;13.606;2022-08-05T05:55:59;100373.36;;;20.81;71.20
49709;BME280;35601;55.902;13.606;2022-08-05T05:58:27;100367.78;;;20.98;71.13
49709;BME280;35601;55.902;13.606;2022-08-05T06:00:55;100365.01;;;21.01;70.46
49709;BME280;35601;55.902;13.606;2022-08-05T06:03:21;100368.75;;;21.37;69.30
49709;BME280;35601;55.902;13.606;2022-08-05T06:05:49;100365.57;;;21.24;68.58
49709;BME280;35601;55.902;13.606;2022-08-05T06:08:16;100360.59;;;21.52;67.98
49709;BME280;35601;55.902;13.606;2022-08-05T06:10:43;100353.63;;;21.31;67.34
49709;BME280;35601;55.902;13.606;2022-08-05T06:13:10;100351.24;;;21.20;67.57
49709;BME280;35601;55.902;13.606;2022-08-05T06:15:38;100359.94;;;21.59;66.62
49709;BME280;35601;55.902;13.606;2022-08-05T06:18:05;100358.82;;;21.98;65.86
49709;BME280;35601;55.902;13.606;2022-08-05T06:20:32;100364.10;;;22.10;65.28
49709;BME280;35601;55.902;13.606;2022-08-05T06:22:59;100372.99;;;22.11;64.66
49709;BME280;35601;55.902;13.606;2022-08-05T06:25:27;100402.06;;;22.24;64.07
49709;BME280;35601;55.902;13.606;2022-08-05T06:27:54;100436.56;;;21.82;64.62
49709;BME280;35601;55.902;13.606;2022-08-05T06:30:21;100471.56;;;22.05;64.59
49709;BME280;35601;55.902;13.606;2022-08-05T06:32:49;100497.23;;;21.85;64.53
49709;BME280;35601;55.902;13.606;2022-08-05T06:35:17;100519.34;;;21.85;64.91
49709;BME280;35601;55.902;13.606;2022-08-05T06:37:44;100536.61;;;21.40;65.48
49709;BME280;35601;55.902;13.606;2022-08-05T06:40:12;100553.45;;;21.30;66.34
49709;BME280;35601;55.902;13.606;2022-08-05T06:42:39;100557.99;;;20.78;66.52
49709;BME280;35601;55.902;13.606;2022-08-05T06:45:07;100553.40;;;20.89;66.36
49709;BME280;35601;55.902;13.606;2022-08-05T06:47:34;100549.56;;;20.77;65.80
49709;BME280;35601;55.902;13.606;2022-08-05T06:50:01;100557.03;;;20.62;65.95
49709;BME280;35601;55.902;13.606;2022-08-05T06:52:28;100551.67;;;20.90;65.25
49709;BME280;35601;55.902;13.606;2022-08-05T06:54:54;100541.94;;;20.91;65.10
49709;BME280;35601;55.902;13.606;2022-08-05T06:57:21;100558.24;;;20.80;65.72
49709;BME280;35601;55.902;13.606;2022-08-05T06:59:48;100551.95;;;20.36;65.97
49709;BME280;35601;55.902;13.606;2022-08-05T07:02:15;100550.17;;;20.22;65.92
49709;BME280;35601;55.902;13.606;2022-08-05T07:04:42;100520.65;;;20.54;65.58
49709;BME280;35601;55.902;13.606;2022-08-05T07:07:09;100502.09;;;19.56;66.19
49709;BME280;35601;55.902;13.606;2022-08-05T07:09:36;100486.65;;;20.31;66.31
49709;BME280;35601;55.902;13.606;2022-08-05T07:12:03;100498.71;;;19.93;66.24
49709;BME280;35601;55.902;13.606;2022-08-05T07:14:31;100501.14;;;19.87;66.37
49709;BME280;35601;55.902;13.606;2022-08-05T07:16:58;100487.05;;;19.72;67.64
49709;BME280;35601;55.902;13.606;2022-08-05T07:19:26;100469.56;;;19.50;68.70
49709;BME280;35601;55.902;13.606;2022-08-05T07:21:53;100442.76;;;19.99;68.01
49709;BME280;35601;55.902;13.606;2022-08-05T07:24:21;100437.52;;;19.59;68.84
49709;BME280;35601;55.902;13.606;2022-08-05T07:26:48;100434.51;;;19.78;68.39
49709;BME280;35601;55.902;13.606;2022-08-05T07:29:15;100418.73;;;19.47;68.30
49709;BME280;35601;55.902;13.606;2022-08-05T07:31:42;100413.12;;;19.66;69.27
49709;BME280;35601;55.902;13.606;2022-08-05T07:34:09;100407.48;;;19.34;70.73
49709;BME280;35601;55.902;13.606;2022-08-05T07:36:36;100405.05;;;18.61;71.99
49709;BME280;35601;55.902;13.606;2022-08-05T07:39:05;100405.25;;;19.53;70.02
49709;BME280;35601;55.902;13.606;2022-08-05T07:41:34;100412.23;;;19.75;70.03
49709;BME280;35601;55.902;13.606;2022-08-05T07:44:03;100417.85;;;19.84;69.93
49709;BME280;35601;55.902;13.606;2022-08-05T07:46:31;100425.66;;;19.66;69.72
49709;BME280;35601;55.902;13.606;2022-08-05T07:49:01;100426.17;;;19.78;69.46
49709;BME280;35601;55.902;13.606;2022-08-05T07:51:28;100408.64;;;19.07;71.43
49709;BME280;35601;55.902;13.606;2022-08-05T07:53:55;100411.29;;;19.72;69.68
49709;BME280;35601;55.902;13.606;2022-08-05T07:56:22;100418.90;;;19.06;70.91
49709;BME280;35601;55.902;13.606;2022-08-05T07:58:49;100429.56;;;19.74;69.48
49709;BME280;35601;55.902;13.606;2022-08-05T08:01:16;100427.29;;;19.85;69.40
49709;BME280;35601;55.902;13.606;2022-08-05T08:03:43;100421.70;;;19.11;70.15
49709;BME280;35601;55.902;13.606;2022-08-05T08:06:10;100436.79;;;19.60;69.23
49709;BME280;35601;55.902;13.606;2022-08-05T08:08:36;100444.20;;;19.89;68.64
49709;BME280;35601;55.902;13.606;2022-08-05T08:11:03;100443.37;;;20.11;68.14
49709;BME280;35601;55.902;13.606;2022-08-05T08:13:30;100454.39;;;19.61;68.76
49709;BME280;35601;55.902;13.606;2022-08-05T08:15:57;100469.66;;;19.55;68.36
49709;BME280;35601;55.902;13.606;2022-08-05T08:18:24;100469.94;;;19.83;67.80
49709;BME280;35601;55.902;13.606;2022-08-05T08:20:51;100471.51;;;19.75;68.47
49709;BME280;35601;55.902;13.606;2022-08-05T08:23:17;100479.59;;;20.12;67.40
49709;BME280;35601;55.902;13.606;2022-08-05T08:25:45;100479.80;;;20.03;67.63
49709;BME280;35601;55.902;13.606;2022-08-05T08:28:12;100476.45;;;19.80;68.47
49709;BME280;35601;55.902;13.606;2022-08-05T08:30:39;100487.35;;;19.45;67.92
49709;BME280;35601;55.902;13.606;2022-08-05T08:33:08;100493.83;;;19.79;67.50
49709;BME280;35601;55.902;13.606;2022-08-05T08:35:36;100496.71;;;19.89;67.33
49709;BME280;35601;55.902;13.606;2022-08-05T08:38:03;100497.38;;;20.13;66.83
49709;BME280;35601;55.902;13.606;2022-08-05T08:40:32;100495.45;;;20.24;67.24
49709;BME280;35601;55.902;13.606;2022-08-05T08:43:00;100485.12;;;19.35;67.65
49709;BME280;35601;55.902;13.606;2022-08-05T08:45:29;100470.68;;;19.64;68.21
49709;BME280;35601;55.902;13.606;2022-08-05T08:47:58;100470.10;;;19.68;67.96
49709;BME280;35601;55.902;13.606;2022-08-05T08:50:25;100478.76;;;19.94;66.79
49709;BME280;35601;55.902;13.606;2022-08-05T08:52:55;100487.23;;;19.96;66.21
49709;BME280;35601;55.902;13.606;2022-08-05T08:55:24;100494.89;;;19.64;66.43
49709;BME280;35601;55.902;13.606;2022-08-05T08:57:50;100500.23;;;19.99;65.77
49709;BME280;35601;55.902;13.606;2022-08-05T09:00:17;100500.91;;;19.98;65.33
49709;BME280;35601;55.902;13.606;2022-08-05T09:02:45;100499.62;;;19.39;66.06
49709;BME280;35601;55.902;13.606;2022-08-05T09:05:12;100501.16;;;18.91;67.43
49709;BME280;35601;55.902;13.606;2022-08-05T09:07:39;100501.63;;;19.01;66.95
49709;BME280;35601;55.902;13.606;2022-08-05T09:10:06;100502.70;;;19.01;66.85
49709;BME280;35601;55.902;13.606;2022-08-05T09:12:34;100507.25;;;18.94;67.13
49709;BME280;35601;55.902;13.606;2022-08-05T09:15:03;100510.92;;;19.24;66.07
49709;BME280;35601;55.902;13.606;2022-08-05T09:17:31;100513.84;;;19.56;66.27
49709;BME280;35601;55.902;13.606;2022-08-05T09:19:59;100513.09;;;19.29;66.21
49709;BME280;35601;55.902;13.606;2022-08-05T09:22:26;100516.69;;;19.75;65.69
49709;BME280;35601;55.902;13.606;2022-08-05T09:24:57;100525.07;;;19.82;65.20
49709;BME280;35601;55.902;13.606;2022-08-05T09:27:31;100528.13;;;19.94;64.85
49709;BME280;35601;55.902;13.606;2022-08-05T09:29:59;100531.63;;;19.48;65.05
49709;BME280;35601;55.902;13.606;2022-08-05T09:32:35;100537.86;;;20.02;65.35
49709;BME280;35601;55.902;13.606;2022-08-05T09:35:09;100538.74;;;19.91;65.93
49709;BME280;35601;55.902;13.606;2022-08-05T09:37:38;100546.02;;;20.31;64.45
49709;BME280;35601;55.902;13.606;2022-08-05T09:40:30;100553.45;;;20.20;64.60
49709;BME280;35601;55.902;13.606;2022-08-05T09:42:59;100558.96;;;20.26;65.29
49709;BME280;35601;55.902;13.606;2022-08-05T09:45:35;100559.95;;;20.46;64.14
49709;BME280;35601;55.902;13.606;2022-08-05T09:48:22;100558.15;;;20.47;64.50
49709;BME280;35601;55.902;13.606;2022-08-05T09:50:52;100561.04;;;20.72;63.94
49709;BME280;35601;55.902;13.606;2022-08-05T09:53:19;100564.36;;;20.59;62.54
49709;BME280;35601;55.902;13.606;2022-08-05T09:55:51;100550.02;;;20.58;61.56
49709;BME280;35601;55.902;13.606;2022-08-05T09:58:19;100545.40;;;20.74;61.69
49709;BME280;35601;55.902;13.606;2022-08-05T10:00:57;100543.48;;;21.13;60.26
49709;BME280;35601;55.902;13.606;2022-08-05T10:03:25;100545.11;;;20.61;60.51
49709;BME280;35601;55.902;13.606;2022-08-05T10:06:01;100553.74;;;20.99;59.24
49709;BME280;35601;55.902;13.606;2022-08-05T10:08:29;100554.79;;;21.19;59.58
49709;BME280;35601;55.902;13.606;2022-08-05T10:10:57;100552.37;;;21.21;59.08
49709;BME280;35601;55.902;13.606;2022-08-05T10:13:27;100548.78;;;21.37;60.26
49709;BME280;35601;55.902;13.606;2022-08-05T10:15:55;100547.12;;;21.64;59.84
49709;BME280;35601;55.902;13.606;2022-08-05T10:18:23;100548.26;;;21.63;58.36
49709;BME280;35601;55.902;13.606;2022-08-05T10:20:51;100541.89;;;21.94;58.88
49709;BME280;35601;55.902;13.606;2022-08-05T10:23:21;100538.06;;;20.50;57.94
49709;BME280;35601;55.902;13.606;2022-08-05T10:25:48;100549.25;;;22.42;56.39
49709;BME280;35601;55.902;13.606;2022-08-05T10:28:16;100551.60;;;22.94;54.66
49709;BME280;35601;55.902;13.606;2022-08-05T10:30:44;100555.06;;;22.75;55.29
49709;BME280;35601;55.902;13.606;2022-08-05T10:33:12;100559.53;;;23.30;53.65
49709;BME280;35601;55.902;13.606;2022-08-05T10:35:40;100565.66;;;22.88;52.06
49709;BME280;35601;55.902;13.606;2022-08-05T10:38:07;100561.17;;;23.12;53.35
49709;BME280;35601;55.902;13.606;2022-08-05T10:40:40;100560.10;;;23.08;52.66
49709;BME280;35601;55.902;13.606;2022-08-05T10:43:19;100559.41;;;22.49;49.34
49709;BME280;35601;55.902;13.606;2022-08-05T10:45:59;100547.84;;;23.40;52.93
49709;BME280;35601;55.902;13.606;2022-08-05T10:48:29;100546.07;;;23.75;50.57
49709;BME280;35601;55.902;13.606;2022-08-05T10:51:00;100545.53;;;23.62;49.02
49709;BME280;35601;55.902;13.606;2022-08-05T10:53:38;100549.11;;;24.66;48.47
49709;BME280;35601;55.902;13.606;2022-08-05T10:56:09;100547.83;;;24.79;47.64
49709;BME280;35601;55.902;13.606;2022-08-05T10:58:49;100538.72;;;25.21;46.43
49709;BME280;35601;55.902;13.606;2022-08-05T11:01:28;100530.94;;;25.59;44.07
49709;BME280;35601;55.902;13.606;2022-08-05T11:04:05;100535.25;;;25.70;43.48
49709;BME280;35601;55.902;13.606;2022-08-05T11:06:35;100531.01;;;25.70;44.48
49709;BME280;35601;55.902;13.606;2022-08-05T11:09:38;100518.22;;;25.05;42.98
49709;BME280;35601;55.902;13.606;2022-08-05T11:12:45;100510.10;;;25.42;42.93
49709;BME280;35601;55.902;13.606;2022-08-05T11:15:19;100510.24;;;25.78;42.16
49709;BME280;35601;55.902;13.606;2022-08-05T11:17:47;100506.29;;;26.27;42.24
49709;BME280;35601;55.902;13.606;2022-08-05T11:20:34;100499.42;;;26.00;41.14
49709;BME280;35601;55.902;13.606;2022-08-05T11:23:29;100494.77;;;25.41;41.06
49709;BME280;35601;55.902;13.606;2022-08-05T11:26:01;100488.32;;;25.32;40.81
49709;BME280;35601;55.902;13.606;2022-08-05T11:28:46;100483.29;;;25.82;39.81
49709;BME280;35601;55.902;13.606;2022-08-05T11:31:24;100481.52;;;25.76;43.03
49709;BME280;35601;55.902;13.606;2022-08-05T11:33:54;100486.26;;;25.80;41.56
49709;BME280;35601;55.902;13.606;2022-08-05T11:36:41;100488.46;;;25.01;42.22
49709;BME280;35601;55.902;13.606;2022-08-05T11:39:10;100495.03;;;25.25;42.59
49709;BME280;35601;55.902;13.606;2022-08-05T11:41:37;100488.74;;;25.27;42.42
49709;BME280;35601;55.902;13.606;2022-08-05T11:44:06;100492.61;;;24.80;41.98
49709;BME280;35601;55.902;13.606;2022-08-05T11:46:35;100494.80;;;24.98;42.33
49709;BME280;35601;55.902;13.606;2022-08-05T11:49:04;100478.37;;;25.38;43.35
49709;BME280;35601;55.902;13.606;2022-08-05T11:51:32;100492.55;;;25.94;42.74
49709;BME280;35601;55.902;13.606;2022-08-05T11:53:59;100499.94;;;25.68;42.18
49709;BME280;35601;55.902;13.606;2022-08-05T11:56:44;100507.91;;;25.99;42.02
49709;BME280;35601;55.902;13.606;2022-08-05T11:59:15;100510.91;;;26.10;39.73
49709;BME280;35601;55.902;13.606;2022-08-05T12:01:56;100506.88;;;26.24;41.72
49709;BME280;35601;55.902;13.606;2022-08-05T12:04:26;100506.56;;;26.72;38.72
49709;BME280;35601;55.902;13.606;2022-08-05T12:06:54;100506.36;;;26.67;40.57
49709;BME280;35601;55.902;13.606;2022-08-05T12:09:25;100511.02;;;26.90;38.48
49709;BME280;35601;55.902;13.606;2022-08-05T12:11:56;100511.36;;;26.89;38.57
49709;BME280;35601;55.902;13.606;2022-08-05T12:14:22;100514.33;;;26.93;38.14
49709;BME280;35601;55.902;13.606;2022-08-05T12:16:49;100524.41;;;26.66;39.13
49709;BME280;35601;55.902;13.606;2022-08-05T12:19:17;100516.89;;;26.48;37.84
49709;BME280;35601;55.902;13.606;2022-08-05T12:21:46;100513.37;;;26.84;38.47
49709;BME280;35601;55.902;13.606;2022-08-05T12:24:16;100513.99;;;27.42;38.70
49709;BME280;35601;55.902;13.606;2022-08-05T12:26:45;100515.86;;;26.82;38.85
49709;BME280;35601;55.902;13.606;2022-08-05T12:29:14;100512.23;;;26.97;39.37
49709;BME280;35601;55.902;13.606;2022-08-05T12:31:47;100509.45;;;26.25;38.91
49709;BME280;35601;55.902;13.606;2022-08-05T12:34:15;100510.80;;;26.35;39.66
49709;BME280;35601;55.902;13.606;2022-08-05T12:36:44;100509.28;;;26.04;40.71
49709;BME280;35601;55.902;13.606;2022-08-05T12:39:12;100508.67;;;25.72;40.80
49709;BME280;35601;55.902;13.606;2022-08-05T12:41:40;100507.56;;;26.12;40.73
49709;BME280;35601;55.902;13.606;2022-08-05T12:44:10;100512.58;;;25.84;41.14
49709;BME280;35601;55.902;13.606;2022-08-05T12:46:38;100524.77;;;25.77;41.78
49709;BME280;35601;55.902;13.606;2022-08-05T12:49:07;100538.36;;;25.11;41.70
49709;BME280;35601;55.902;13.606;2022-08-05T12:51:51;100542.69;;;24.95;41.81